sensor_id;sensor_type;location;lat;lon;timestamp;P1;durP1;ratioP1;P2;durP2;ratioP2
75793;SDS011;64418;47.536;19.074;2023-03-08T00:01:41;25.00;;;13.10;;
75793;SDS011;64418;47.536;19.074;2023-03-08T00:04:27;27.05;;;12.90;;
75793;SDS011;64418;47.536;19.074;2023-03-08T00:06:54;26.65;;;13.65;;
75793;SDS011;64418;47.536;19.074;2023-03-08T00:09:20;28.02;;;13.85;;
75793;SDS011;64418;47.536;19.074;2023-03-08T00:12:06;27.45;;;13.55;;
75793;SDS011;64418;47.536;19.074;2023-03-08T00:14:36;31.77;;;13.07;;
75793;SDS011;64418;47.536;19.074;2023-03-08T00:17:02;32.13;;;14.55;;
75793;SDS011;64418;47.536;19.074;2023-03-08T00:19:49;28.60;;;13.27;;
75793;SDS011;64418;47.536;19.074;2023-03-08T00:22:17;26.65;;;13.40;;
75793;SDS011;64418;47.536;19.074;2023-03-08T00:24:43;29.08;;;14.18;;
75793;SDS011;64418;47.536;19.074;2023-03-08T00:27:28;25.10;;;13.87;;
75793;SDS011;64418;47.536;19.074;2023-03-08T00:29:55;27.75;;;14.05;;
75793;SDS011;64418;47.536;19.074;2023-03-08T00:32:20;24.85;;;13.62;;
75793;SDS011;64418;47.536;19.074;2023-03-08T00:34:46;30.17;;;14.07;;
75793;SDS011;64418;47.536;19.074;2023-03-08T00:37:12;24.50;;;13.60;;
75793;SDS011;64418;47.536;19.074;2023-03-08T00:39:40;30.67;;;15.15;;
75793;SDS011;64418;47.536;19.074;2023-03-08T00:42:06;29.92;;;14.73;;
75793;SDS011;64418;47.536;19.074;2023-03-08T00:44:31;30.83;;;14.43;;
75793;SDS011;64418;47.536;19.074;2023-03-08T00:46:57;31.37;;;14.33;;
75793;SDS011;64418;47.536;19.074;2023-03-08T00:49:23;34.40;;;15.90;;
75793;SDS011;64418;47.536;19.074;2023-03-08T00:51:48;30.17;;;14.67;;
75793;SDS011;64418;47.536;19.074;2023-03-08T00:54:34;31.60;;;15.75;;
75793;SDS011;64418;47.536;19.074;2023-03-08T00:57:01;34.07;;;15.43;;
75793;SDS011;64418;47.536;19.074;2023-03-08T00:59:47;33.33;;;15.82;;
75793;SDS011;64418;47.536;19.074;2023-03-08T01:02:13;31.35;;;14.70;;
75793;SDS011;64418;47.536;19.074;2023-03-08T01:04:39;32.20;;;14.60;;
75793;SDS011;64418;47.536;19.074;2023-03-08T01:07:04;31.17;;;14.13;;
75793;SDS011;64418;47.536;19.074;2023-03-08T01:09:30;35.05;;;15.57;;
75793;SDS011;64418;47.536;19.074;2023-03-08T01:11:56;29.75;;;15.25;;
75793;SDS011;64418;47.536;19.074;2023-03-08T01:14:23;34.37;;;15.97;;
75793;SDS011;64418;47.536;19.074;2023-03-08T01:16:50;29.15;;;14.75;;
75793;SDS011;64418;47.536;19.074;2023-03-08T01:19:35;27.70;;;13.45;;
75793;SDS011;64418;47.536;19.074;2023-03-08T01:22:01;31.23;;;13.70;;
75793;SDS011;64418;47.536;19.074;2023-03-08T01:24:27;28.55;;;13.10;;
75793;SDS011;64418;47.536;19.074;2023-03-08T01:26:53;28.73;;;13.62;;
75793;SDS011;64418;47.536;19.074;2023-03-08T01:29:19;26.53;;;14.07;;
75793;SDS011;64418;47.536;19.074;2023-03-08T01:31:47;33.33;;;15.18;;
75793;SDS011;64418;47.536;19.074;2023-03-08T01:34:12;28.33;;;15.52;;
75793;SDS011;64418;47.536;19.074;2023-03-08T01:36:38;29.02;;;15.30;;
75793;SDS011;64418;47.536;19.074;2023-03-08T01:39:04;28.08;;;14.00;;
75793;SDS011;64418;47.536;19.074;2023-03-08T01:41:30;32.00;;;15.13;;
75793;SDS011;64418;47.536;19.074;2023-03-08T01:43:57;32.67;;;15.77;;
75793;SDS011;64418;47.536;19.074;2023-03-08T01:46:25;30.00;;;15.07;;
75793;SDS011;64418;47.536;19.074;2023-03-08T01:48:55;31.62;;;15.95;;
75793;SDS011;64418;47.536;19.074;2023-03-08T01:51:29;34.70;;;15.27;;
75793;SDS011;64418;47.536;19.074;2023-03-08T01:54:00;30.43;;;15.73;;
75793;SDS011;64418;47.536;19.074;2023-03-08T01:56:30;33.45;;;15.98;;
75793;SDS011;64418;47.536;19.074;2023-03-08T01:58:56;37.42;;;16.20;;
75793;SDS011;64418;47.536;19.074;2023-03-08T02:01:23;34.50;;;15.73;;
75793;SDS011;64418;47.536;19.074;2023-03-08T02:03:51;37.83;;;17.37;;
75793;SDS011;64418;47.536;19.074;2023-03-08T02:06:18;35.78;;;16.25;;
75793;SDS011;64418;47.536;19.074;2023-03-08T02:08:45;33.70;;;15.85;;
75793;SDS011;64418;47.536;19.074;2023-03-08T02:11:12;34.42;;;14.80;;
75793;SDS011;64418;47.536;19.074;2023-03-08T02:13:39;33.27;;;15.73;;
75793;SDS011;64418;47.536;19.074;2023-03-08T02:16:07;36.95;;;15.88;;
75793;SDS011;64418;47.536;19.074;2023-03-08T02:18:36;37.03;;;15.88;;
75793;SDS011;64418;47.536;19.074;2023-03-08T02:21:15;38.90;;;15.00;;
75793;SDS011;64418;47.536;19.074;2023-03-08T02:23:43;35.45;;;16.73;;
75793;SDS011;64418;47.536;19.074;2023-03-08T02:26:08;38.63;;;15.20;;
75793;SDS011;64418;47.536;19.074;2023-03-08T02:28:34;36.63;;;16.73;;
75793;SDS011;64418;47.536;19.074;2023-03-08T02:31:01;31.92;;;14.85;;
75793;SDS011;64418;47.536;19.074;2023-03-08T02:33:26;33.23;;;14.30;;
75793;SDS011;64418;47.536;19.074;2023-03-08T02:35:52;30.27;;;15.23;;
75793;SDS011;64418;47.536;19.074;2023-03-08T02:38:19;34.58;;;15.13;;
75793;SDS011;64418;47.536;19.074;2023-03-08T02:40:47;33.30;;;15.40;;
75793;SDS011;64418;47.536;19.074;2023-03-08T02:43:16;36.30;;;15.85;;
75793;SDS011;64418;47.536;19.074;2023-03-08T02:45:45;31.50;;;14.40;;
75793;SDS011;64418;47.536;19.074;2023-03-08T02:48:12;31.12;;;14.75;;
75793;SDS011;64418;47.536;19.074;2023-03-08T02:50:38;34.88;;;14.07;;
75793;SDS011;64418;47.536;19.074;2023-03-08T02:53:24;32.17;;;14.40;;
75793;SDS011;64418;47.536;19.074;2023-03-08T02:55:52;35.37;;;14.97;;
75793;SDS011;64418;47.536;19.074;2023-03-08T02:58:18;37.00;;;14.98;;
75793;SDS011;64418;47.536;19.074;2023-03-08T03:00:43;32.60;;;14.68;;
75793;SDS011;64418;47.536;19.074;2023-03-08T03:03:09;36.50;;;14.90;;
75793;SDS011;64418;47.536;19.074;2023-03-08T03:05:39;36.85;;;15.18;;
75793;SDS011;64418;47.536;19.074;2023-03-08T03:08:05;41.45;;;16.45;;
75793;SDS011;64418;47.536;19.074;2023-03-08T03:10:31;35.33;;;14.40;;
75793;SDS011;64418;47.536;19.074;2023-03-08T03:13:02;38.47;;;15.95;;
75793;SDS011;64418;47.536;19.074;2023-03-08T03:15:28;38.83;;;15.10;;
75793;SDS011;64418;47.536;19.074;2023-03-08T03:17:54;38.63;;;16.40;;
75793;SDS011;64418;47.536;19.074;2023-03-08T03:20:20;43.03;;;16.37;;
75793;SDS011;64418;47.536;19.074;2023-03-08T03:22:46;40.88;;;16.50;;
75793;SDS011;64418;47.536;19.074;2023-03-08T03:25:15;36.75;;;15.73;;
75793;SDS011;64418;47.536;19.074;2023-03-08T03:27:41;42.10;;;16.27;;
75793;SDS011;64418;47.536;19.074;2023-03-08T03:30:28;37.00;;;15.90;;
75793;SDS011;64418;47.536;19.074;2023-03-08T03:32:54;37.13;;;15.88;;
75793;SDS011;64418;47.536;19.074;2023-03-08T03:35:20;39.95;;;15.07;;
75793;SDS011;64418;47.536;19.074;2023-03-08T03:37:46;38.28;;;15.10;;
75793;SDS011;64418;47.536;19.074;2023-03-08T03:40:12;38.83;;;15.73;;
75793;SDS011;64418;47.536;19.074;2023-03-08T03:42:38;35.75;;;15.77;;
75793;SDS011;64418;47.536;19.074;2023-03-08T03:45:05;32.27;;;15.20;;
75793;SDS011;64418;47.536;19.074;2023-03-08T03:47:32;31.60;;;15.27;;
75793;SDS011;64418;47.536;19.074;2023-03-08T03:49:58;33.90;;;16.40;;
75793;SDS011;64418;47.536;19.074;2023-03-08T03:52:24;35.28;;;15.48;;
75793;SDS011;64418;47.536;19.074;2023-03-08T03:54:50;35.37;;;14.30;;
75793;SDS011;64418;47.536;19.074;2023-03-08T03:57:16;34.60;;;15.45;;
75793;SDS011;64418;47.536;19.074;2023-03-08T03:59:43;32.58;;;14.77;;
75793;SDS011;64418;47.536;19.074;2023-03-08T04:02:09;31.87;;;14.43;;
75793;SDS011;64418;47.536;19.074;2023-03-08T04:04:36;33.00;;;15.20;;
75793;SDS011;64418;47.536;19.074;2023-03-08T04:07:02;30.17;;;14.60;;
75793;SDS011;64418;47.536;19.074;2023-03-08T04:09:28;28.98;;;14.77;;
75793;SDS011;64418;47.536;19.074;2023-03-08T04:11:54;31.80;;;14.93;;
75793;SDS011;64418;47.536;19.074;2023-03-08T04:14:20;30.45;;;13.68;;
75793;SDS011;64418;47.536;19.074;2023-03-08T04:16:46;35.33;;;16.20;;
75793;SDS011;64418;47.536;19.074;2023-03-08T04:19:12;32.90;;;15.45;;
75793;SDS011;64418;47.536;19.074;2023-03-08T04:21:39;33.53;;;14.82;;
75793;SDS011;64418;47.536;19.074;2023-03-08T04:24:26;34.70;;;16.00;;
75793;SDS011;64418;47.536;19.074;2023-03-08T04:26:52;33.63;;;15.10;;
75793;SDS011;64418;47.536;19.074;2023-03-08T04:29:38;31.50;;;14.48;;
75793;SDS011;64418;47.536;19.074;2023-03-08T04:32:04;33.72;;;14.93;;
75793;SDS011;64418;47.536;19.074;2023-03-08T04:34:30;35.67;;;15.88;;
75793;SDS011;64418;47.536;19.074;2023-03-08T04:37:18;34.63;;;15.53;;
75793;SDS011;64418;47.536;19.074;2023-03-08T04:39:45;42.40;;;16.02;;
75793;SDS011;64418;47.536;19.074;2023-03-08T04:42:12;41.40;;;16.85;;
75793;SDS011;64418;47.536;19.074;2023-03-08T04:44:38;42.53;;;17.23;;
75793;SDS011;64418;47.536;19.074;2023-03-08T04:47:04;38.72;;;16.37;;
75793;SDS011;64418;47.536;19.074;2023-03-08T04:49:29;44.70;;;17.30;;
75793;SDS011;64418;47.536;19.074;2023-03-08T04:51:55;44.47;;;17.48;;
75793;SDS011;64418;47.536;19.074;2023-03-08T04:54:23;44.47;;;17.23;;
75793;SDS011;64418;47.536;19.074;2023-03-08T04:56:49;43.20;;;17.53;;
75793;SDS011;64418;47.536;19.074;2023-03-08T04:59:15;47.08;;;19.25;;
75793;SDS011;64418;47.536;19.074;2023-03-08T05:01:41;46.75;;;18.10;;
75793;SDS011;64418;47.536;19.074;2023-03-08T05:04:08;49.38;;;18.67;;
75793;SDS011;64418;47.536;19.074;2023-03-08T05:06:34;42.85;;;18.02;;
75793;SDS011;64418;47.536;19.074;2023-03-08T05:09:00;41.97;;;18.27;;
75793;SDS011;64418;47.536;19.074;2023-03-08T05:11:28;41.40;;;17.75;;
75793;SDS011;64418;47.536;19.074;2023-03-08T05:13:57;37.97;;;16.45;;
75793;SDS011;64418;47.536;19.074;2023-03-08T05:16:27;38.27;;;16.70;;
75793;SDS011;64418;47.536;19.074;2023-03-08T05:18:52;42.78;;;16.95;;
75793;SDS011;64418;47.536;19.074;2023-03-08T05:21:38;39.67;;;16.83;;
75793;SDS011;64418;47.536;19.074;2023-03-08T05:24:04;39.27;;;16.53;;
75793;SDS011;64418;47.536;19.074;2023-03-08T05:26:32;37.25;;;16.00;;
75793;SDS011;64418;47.536;19.074;2023-03-08T05:29:17;37.42;;;15.65;;
75793;SDS011;64418;47.536;19.074;2023-03-08T05:31:43;35.33;;;15.90;;
75793;SDS011;64418;47.536;19.074;2023-03-08T05:34:09;32.27;;;15.53;;
75793;SDS011;64418;47.536;19.074;2023-03-08T05:36:55;34.08;;;15.05;;
75793;SDS011;64418;47.536;19.074;2023-03-08T05:39:21;34.45;;;16.40;;
75793;SDS011;64418;47.536;19.074;2023-03-08T05:42:08;34.33;;;15.23;;
75793;SDS011;64418;47.536;19.074;2023-03-08T05:44:34;33.97;;;15.27;;
75793;SDS011;64418;47.536;19.074;2023-03-08T05:47:00;36.25;;;14.00;;
75793;SDS011;64418;47.536;19.074;2023-03-08T05:49:25;96.55;;;37.97;;
75793;SDS011;64418;47.536;19.074;2023-03-08T05:51:51;76.00;;;34.13;;
75793;SDS011;64418;47.536;19.074;2023-03-08T05:54:37;48.80;;;17.12;;
75793;SDS011;64418;47.536;19.074;2023-03-08T05:57:02;25.73;;;11.82;;
75793;SDS011;64418;47.536;19.074;2023-03-08T05:59:50;23.60;;;11.45;;
75793;SDS011;64418;47.536;19.074;2023-03-08T06:02:36;20.80;;;9.47;;
75793;SDS011;64418;47.536;19.074;2023-03-08T06:05:03;26.55;;;14.35;;
75793;SDS011;64418;47.536;19.074;2023-03-08T06:07:30;22.10;;;11.23;;
75793;SDS011;64418;47.536;19.074;2023-03-08T06:09:55;20.25;;;10.73;;
75793;SDS011;64418;47.536;19.074;2023-03-08T06:12:21;19.20;;;9.20;;
75793;SDS011;64418;47.536;19.074;2023-03-08T06:14:47;16.77;;;8.38;;
75793;SDS011;64418;47.536;19.074;2023-03-08T06:17:15;16.87;;;8.25;;
75793;SDS011;64418;47.536;19.074;2023-03-08T06:20:01;20.13;;;9.83;;
75793;SDS011;64418;47.536;19.074;2023-03-08T06:22:26;16.58;;;8.23;;
75793;SDS011;64418;47.536;19.074;2023-03-08T06:25:12;18.98;;;9.57;;
75793;SDS011;64418;47.536;19.074;2023-03-08T06:27:38;25.60;;;10.02;;
75793;SDS011;64418;47.536;19.074;2023-03-08T06:30:06;21.90;;;9.75;;
75793;SDS011;64418;47.536;19.074;2023-03-08T06:32:35;25.47;;;9.87;;
75793;SDS011;64418;47.536;19.074;2023-03-08T06:35:20;20.33;;;9.98;;
75793;SDS011;64418;47.536;19.074;2023-03-08T06:37:46;16.92;;;8.80;;
75793;SDS011;64418;47.536;19.074;2023-03-08T06:40:32;25.07;;;10.77;;
75793;SDS011;64418;47.536;19.074;2023-03-08T06:42:58;23.77;;;9.18;;
75793;SDS011;64418;47.536;19.074;2023-03-08T06:45:26;18.85;;;9.70;;
75793;SDS011;64418;47.536;19.074;2023-03-08T06:48:12;21.52;;;8.90;;
75793;SDS011;64418;47.536;19.074;2023-03-08T06:50:38;23.35;;;11.73;;
75793;SDS011;64418;47.536;19.074;2023-03-08T06:53:04;30.37;;;10.43;;
75793;SDS011;64418;47.536;19.074;2023-03-08T06:55:50;17.85;;;7.95;;
75793;SDS011;64418;47.536;19.074;2023-03-08T06:58:16;15.50;;;8.05;;
75793;SDS011;64418;47.536;19.074;2023-03-08T07:01:03;14.43;;;8.13;;
75793;SDS011;64418;47.536;19.074;2023-03-08T07:03:30;20.30;;;7.57;;
75793;SDS011;64418;47.536;19.074;2023-03-08T07:05:57;14.18;;;7.93;;
75793;SDS011;64418;47.536;19.074;2023-03-08T07:08:43;13.90;;;7.53;;
75793;SDS011;64418;47.536;19.074;2023-03-08T07:11:09;16.90;;;8.43;;
75793;SDS011;64418;47.536;19.074;2023-03-08T07:13:35;17.67;;;8.43;;
75793;SDS011;64418;47.536;19.074;2023-03-08T07:16:23;14.57;;;7.47;;
75793;SDS011;64418;47.536;19.074;2023-03-08T07:18:49;18.70;;;8.05;;
75793;SDS011;64418;47.536;19.074;2023-03-08T07:21:15;20.65;;;9.57;;
75793;SDS011;64418;47.536;19.074;2023-03-08T07:23:41;33.70;;;13.40;;
75793;SDS011;64418;47.536;19.074;2023-03-08T07:26:07;21.75;;;10.38;;
75793;SDS011;64418;47.536;19.074;2023-03-08T07:28:35;20.50;;;10.82;;
75793;SDS011;64418;47.536;19.074;2023-03-08T07:31:02;20.40;;;9.18;;
75793;SDS011;64418;47.536;19.074;2023-03-08T07:33:30;19.23;;;8.23;;
75793;SDS011;64418;47.536;19.074;2023-03-08T07:35:57;26.87;;;9.80;;
75793;SDS011;64418;47.536;19.074;2023-03-08T07:38:43;16.98;;;9.20;;
75793;SDS011;64418;47.536;19.074;2023-03-08T07:41:09;20.37;;;8.85;;
75793;SDS011;64418;47.536;19.074;2023-03-08T07:43:35;14.93;;;8.03;;
75793;SDS011;64418;47.536;19.074;2023-03-08T07:46:20;16.83;;;8.02;;
75793;SDS011;64418;47.536;19.074;2023-03-08T07:48:47;16.03;;;8.37;;
75793;SDS011;64418;47.536;19.074;2023-03-08T07:51:33;19.20;;;8.57;;
75793;SDS011;64418;47.536;19.074;2023-03-08T07:53:59;17.73;;;8.77;;
75793;SDS011;64418;47.536;19.074;2023-03-08T07:56:24;15.20;;;7.50;;
75793;SDS011;64418;47.536;19.074;2023-03-08T07:59:10;16.30;;;8.45;;
75793;SDS011;64418;47.536;19.074;2023-03-08T08:01:36;16.05;;;8.18;;
75793;SDS011;64418;47.536;19.074;2023-03-08T08:04:03;17.65;;;8.15;;
75793;SDS011;64418;47.536;19.074;2023-03-08T08:06:30;26.77;;;8.93;;
75793;SDS011;64418;47.536;19.074;2023-03-08T08:08:56;14.83;;;7.13;;
75793;SDS011;64418;47.536;19.074;2023-03-08T08:11:22;11.20;;;7.20;;
75793;SDS011;64418;47.536;19.074;2023-03-08T08:13:48;9.25;;;5.18;;
75793;SDS011;64418;47.536;19.074;2023-03-08T08:16:14;16.17;;;6.67;;
75793;SDS011;64418;47.536;19.074;2023-03-08T08:19:01;14.57;;;7.35;;
75793;SDS011;64418;47.536;19.074;2023-03-08T08:21:28;21.40;;;6.93;;
75793;SDS011;64418;47.536;19.074;2023-03-08T08:24:14;15.85;;;6.78;;
75793;SDS011;64418;47.536;19.074;2023-03-08T08:27:00;28.67;;;11.67;;
75793;SDS011;64418;47.536;19.074;2023-03-08T08:29:25;36.03;;;10.07;;
75793;SDS011;64418;47.536;19.074;2023-03-08T08:31:51;17.60;;;7.32;;
75793;SDS011;64418;47.536;19.074;2023-03-08T08:34:17;13.67;;;6.37;;
75793;SDS011;64418;47.536;19.074;2023-03-08T08:37:04;16.98;;;6.75;;
75793;SDS011;64418;47.536;19.074;2023-03-08T08:39:30;15.73;;;6.62;;
75793;SDS011;64418;47.536;19.074;2023-03-08T08:41:57;12.63;;;6.50;;
75793;SDS011;64418;47.536;19.074;2023-03-08T08:44:22;23.23;;;9.43;;
75793;SDS011;64418;47.536;19.074;2023-03-08T08:46:48;17.95;;;6.85;;
75793;SDS011;64418;47.536;19.074;2023-03-08T08:49:13;14.50;;;7.43;;
75793;SDS011;64418;47.536;19.074;2023-03-08T08:51:39;12.63;;;6.87;;
75793;SDS011;64418;47.536;19.074;2023-03-08T08:54:07;16.53;;;7.20;;
75793;SDS011;64418;47.536;19.074;2023-03-08T08:56:33;14.82;;;6.10;;
75793;SDS011;64418;47.536;19.074;2023-03-08T08:58:59;19.65;;;7.35;;
75793;SDS011;64418;47.536;19.074;2023-03-08T09:01:27;12.60;;;6.15;;
75793;SDS011;64418;47.536;19.074;2023-03-08T09:03:54;13.20;;;5.60;;
75793;SDS011;64418;47.536;19.074;2023-03-08T09:06:40;12.30;;;6.00;;
75793;SDS011;64418;47.536;19.074;2023-03-08T09:09:07;11.93;;;6.30;;
75793;SDS011;64418;47.536;19.074;2023-03-08T09:11:34;16.27;;;7.18;;
75793;SDS011;64418;47.536;19.074;2023-03-08T09:14:00;15.82;;;8.07;;
75793;SDS011;64418;47.536;19.074;2023-03-08T09:16:27;14.13;;;6.40;;
75793;SDS011;64418;47.536;19.074;2023-03-08T09:18:54;18.50;;;7.72;;
75793;SDS011;64418;47.536;19.074;2023-03-08T09:21:41;41.78;;;19.60;;
75793;SDS011;64418;47.536;19.074;2023-03-08T09:24:09;31.23;;;15.60;;
75793;SDS011;64418;47.536;19.074;2023-03-08T09:26:36;20.60;;;8.73;;
75793;SDS011;64418;47.536;19.074;2023-03-08T09:29:22;14.48;;;6.32;;
75793;SDS011;64418;47.536;19.074;2023-03-08T09:32:10;9.80;;;5.68;;
75793;SDS011;64418;47.536;19.074;2023-03-08T09:34:36;11.57;;;5.77;;
75793;SDS011;64418;47.536;19.074;2023-03-08T09:37:22;11.93;;;6.30;;
75793;SDS011;64418;47.536;19.074;2023-03-08T09:39:51;10.00;;;5.45;;
75793;SDS011;64418;47.536;19.074;2023-03-08T09:42:17;10.23;;;5.20;;
75793;SDS011;64418;47.536;19.074;2023-03-08T09:48:00;11.93;;;7.50;;
75793;SDS011;64418;47.536;19.074;2023-03-08T09:50:56;13.63;;;7.27;;
75793;SDS011;64418;47.536;19.074;2023-03-08T09:53:45;10.77;;;5.90;;
75793;SDS011;64418;47.536;19.074;2023-03-08T09:56:19;11.07;;;5.80;;
75793;SDS011;64418;47.536;19.074;2023-03-08T09:58:49;11.80;;;6.00;;
75793;SDS011;64418;47.536;19.074;2023-03-08T10:01:22;12.20;;;6.20;;
75793;SDS011;64418;47.536;19.074;2023-03-08T10:04:02;18.33;;;9.60;;
75793;SDS011;64418;47.536;19.074;2023-03-08T10:06:40;24.30;;;11.75;;
75793;SDS011;64418;47.536;19.074;2023-03-08T10:09:32;12.20;;;6.72;;
75793;SDS011;64418;47.536;19.074;2023-03-08T10:12:22;11.75;;;6.53;;
75793;SDS011;64418;47.536;19.074;2023-03-08T10:15:13;9.65;;;5.60;;
75793;SDS011;64418;47.536;19.074;2023-03-08T10:18:03;8.27;;;5.03;;
75793;SDS011;64418;47.536;19.074;2023-03-08T10:20:38;9.25;;;4.87;;
75793;SDS011;64418;47.536;19.074;2023-03-08T10:23:09;9.10;;;5.47;;
75793;SDS011;64418;47.536;19.074;2023-03-08T10:25:39;10.43;;;5.10;;
75793;SDS011;64418;47.536;19.074;2023-03-08T10:28:25;9.38;;;5.37;;
75793;SDS011;64418;47.536;19.074;2023-03-08T10:31:19;8.60;;;5.47;;
75793;SDS011;64418;47.536;19.074;2023-03-08T10:33:48;9.65;;;5.18;;
75793;SDS011;64418;47.536;19.074;2023-03-08T10:36:18;10.20;;;6.28;;
75793;SDS011;64418;47.536;19.074;2023-03-08T10:38:55;13.55;;;6.43;;
75793;SDS011;64418;47.536;19.074;2023-03-08T10:41:25;14.82;;;7.82;;
75793;SDS011;64418;47.536;19.074;2023-03-08T10:44:15;11.83;;;7.17;;
75793;SDS011;64418;47.536;19.074;2023-03-08T10:47:17;14.23;;;7.60;;
75793;SDS011;64418;47.536;19.074;2023-03-08T10:49:44;14.23;;;8.32;;
75793;SDS011;64418;47.536;19.074;2023-03-08T10:52:13;10.95;;;6.72;;
75793;SDS011;64418;47.536;19.074;2023-03-08T10:54:46;12.73;;;7.37;;
75793;SDS011;64418;47.536;19.074;2023-03-08T10:57:25;18.27;;;8.33;;
75793;SDS011;64418;47.536;19.074;2023-03-08T11:00:29;14.52;;;8.00;;
75793;SDS011;64418;47.536;19.074;2023-03-08T11:03:09;12.63;;;6.90;;
75793;SDS011;64418;47.536;19.074;2023-03-08T11:05:37;13.00;;;7.62;;
75793;SDS011;64418;47.536;19.074;2023-03-08T11:08:25;15.52;;;8.45;;
75793;SDS011;64418;47.536;19.074;2023-03-08T11:11:13;12.93;;;7.47;;
75793;SDS011;64418;47.536;19.074;2023-03-08T11:13:39;13.90;;;8.05;;
75793;SDS011;64418;47.536;19.074;2023-03-08T11:16:10;12.85;;;6.87;;
75793;SDS011;64418;47.536;19.074;2023-03-08T11:19:02;14.43;;;7.75;;
75793;SDS011;64418;47.536;19.074;2023-03-08T11:21:39;13.27;;;7.10;;
75793;SDS011;64418;47.536;19.074;2023-03-08T11:24:15;13.03;;;7.10;;
75793;SDS011;64418;47.536;19.074;2023-03-08T11:26:50;10.60;;;6.20;;
75793;SDS011;64418;47.536;19.074;2023-03-08T11:29:29;13.00;;;6.82;;
75793;SDS011;64418;47.536;19.074;2023-03-08T11:32:09;10.80;;;6.68;;
75793;SDS011;64418;47.536;19.074;2023-03-08T11:35:12;11.45;;;6.10;;
75793;SDS011;64418;47.536;19.074;2023-03-08T11:37:48;11.80;;;7.77;;
75793;SDS011;64418;47.536;19.074;2023-03-08T11:40:21;11.63;;;6.47;;
75793;SDS011;64418;47.536;19.074;2023-03-08T11:43:14;12.98;;;6.62;;
75793;SDS011;64418;47.536;19.074;2023-03-08T11:45:50;14.25;;;6.90;;
75793;SDS011;64418;47.536;19.074;2023-03-08T11:48:27;13.27;;;7.10;;
75793;SDS011;64418;47.536;19.074;2023-03-08T11:51:05;9.50;;;5.30;;
75793;SDS011;64418;47.536;19.074;2023-03-08T11:53:40;15.82;;;6.15;;
75793;SDS011;64418;47.536;19.074;2023-03-08T11:56:22;12.80;;;6.78;;
75793;SDS011;64418;47.536;19.074;2023-03-08T11:59:20;9.93;;;5.97;;
75793;SDS011;64418;47.536;19.074;2023-03-08T12:01:55;13.75;;;6.10;;
75793;SDS011;64418;47.536;19.074;2023-03-08T12:04:55;15.93;;;6.27;;
75793;SDS011;64418;47.536;19.074;2023-03-08T12:07:28;12.75;;;6.85;;
75793;SDS011;64418;47.536;19.074;2023-03-08T12:09:59;13.10;;;6.35;;
75793;SDS011;64418;47.536;19.074;2023-03-08T12:12:36;10.80;;;6.30;;
75793;SDS011;64418;47.536;19.074;2023-03-08T12:15:15;12.07;;;6.05;;
75793;SDS011;64418;47.536;19.074;2023-03-08T12:17:49;11.17;;;5.53;;
75793;SDS011;64418;47.536;19.074;2023-03-08T12:20:20;9.47;;;5.30;;
75793;SDS011;64418;47.536;19.074;2023-03-08T12:22:46;11.30;;;6.05;;
75793;SDS011;64418;47.536;19.074;2023-03-08T12:25:21;9.60;;;4.90;;
75793;SDS011;64418;47.536;19.074;2023-03-08T12:27:52;9.25;;;4.50;;
75793;SDS011;64418;47.536;19.074;2023-03-08T12:30:43;8.02;;;4.00;;
75793;SDS011;64418;47.536;19.074;2023-03-08T12:33:18;9.80;;;5.13;;
75793;SDS011;64418;47.536;19.074;2023-03-08T12:35:50;7.12;;;4.10;;
75793;SDS011;64418;47.536;19.074;2023-03-08T12:41:19;9.98;;;4.50;;
75793;SDS011;64418;47.536;19.074;2023-03-08T12:43:56;11.38;;;5.90;;
75793;SDS011;64418;47.536;19.074;2023-03-08T12:46:23;10.07;;;4.83;;
75793;SDS011;64418;47.536;19.074;2023-03-08T12:48:49;12.23;;;4.85;;
75793;SDS011;64418;47.536;19.074;2023-03-08T12:51:20;11.48;;;6.15;;
75793;SDS011;64418;47.536;19.074;2023-03-08T12:53:55;13.45;;;6.45;;
75793;SDS011;64418;47.536;19.074;2023-03-08T12:56:24;11.50;;;5.30;;
75793;SDS011;64418;47.536;19.074;2023-03-08T12:58:55;9.83;;;5.60;;
75793;SDS011;64418;47.536;19.074;2023-03-08T13:01:23;10.33;;;5.60;;
75793;SDS011;64418;47.536;19.074;2023-03-08T13:03:53;14.77;;;6.22;;
75793;SDS011;64418;47.536;19.074;2023-03-08T13:07:08;9.57;;;4.72;;
75793;SDS011;64418;47.536;19.074;2023-03-08T13:09:52;8.00;;;4.47;;
75793;SDS011;64418;47.536;19.074;2023-03-08T13:12:51;10.52;;;5.72;;
75793;SDS011;64418;47.536;19.074;2023-03-08T13:15:26;9.47;;;5.53;;
75793;SDS011;64418;47.536;19.074;2023-03-08T13:17:57;13.18;;;5.70;;
75793;SDS011;64418;47.536;19.074;2023-03-08T13:20:26;7.90;;;4.93;;
75793;SDS011;64418;47.536;19.074;2023-03-08T13:23:23;6.72;;;4.45;;
75793;SDS011;64418;47.536;19.074;2023-03-08T13:25:55;10.07;;;4.53;;
75793;SDS011;64418;47.536;19.074;2023-03-08T13:28:57;9.73;;;4.60;;
75793;SDS011;64418;47.536;19.074;2023-03-08T13:31:25;9.05;;;4.37;;
75793;SDS011;64418;47.536;19.074;2023-03-08T13:33:54;8.65;;;4.43;;
75793;SDS011;64418;47.536;19.074;2023-03-08T13:36:21;9.60;;;4.70;;
75793;SDS011;64418;47.536;19.074;2023-03-08T13:38:58;10.68;;;5.30;;
75793;SDS011;64418;47.536;19.074;2023-03-08T13:41:45;9.47;;;4.13;;
75793;SDS011;64418;47.536;19.074;2023-03-08T13:44:13;11.70;;;4.20;;
75793;SDS011;64418;47.536;19.074;2023-03-08T13:46:40;6.97;;;3.78;;
75793;SDS011;64418;47.536;19.074;2023-03-08T13:49:28;7.62;;;4.18;;
75793;SDS011;64418;47.536;19.074;2023-03-08T13:51:55;6.82;;;3.83;;
75793;SDS011;64418;47.536;19.074;2023-03-08T13:54:27;12.18;;;5.03;;
75793;SDS011;64418;47.536;19.074;2023-03-08T13:56:55;8.43;;;4.40;;
75793;SDS011;64418;47.536;19.074;2023-03-08T13:59:22;7.00;;;3.70;;
75793;SDS011;64418;47.536;19.074;2023-03-08T14:01:48;7.62;;;4.37;;
75793;SDS011;64418;47.536;19.074;2023-03-08T14:04:34;10.73;;;3.70;;
75793;SDS011;64418;47.536;19.074;2023-03-08T14:07:06;9.13;;;4.00;;
75793;SDS011;64418;47.536;19.074;2023-03-08T14:09:46;6.03;;;3.62;;
75793;SDS011;64418;47.536;19.074;2023-03-08T14:12:13;7.75;;;3.47;;
75793;SDS011;64418;47.536;19.074;2023-03-08T14:14:42;7.60;;;3.95;;
75793;SDS011;64418;47.536;19.074;2023-03-08T14:17:14;6.35;;;3.33;;
75793;SDS011;64418;47.536;19.074;2023-03-08T14:19:44;7.47;;;3.33;;
75793;SDS011;64418;47.536;19.074;2023-03-08T14:22:11;6.50;;;3.80;;
75793;SDS011;64418;47.536;19.074;2023-03-08T14:24:39;6.30;;;3.40;;
75793;SDS011;64418;47.536;19.074;2023-03-08T14:27:32;9.13;;;4.05;;
75793;SDS011;64418;47.536;19.074;2023-03-08T14:30:03;7.67;;;4.00;;
75793;SDS011;64418;47.536;19.074;2023-03-08T14:33:02;10.73;;;4.45;;
75793;SDS011;64418;47.536;19.074;2023-03-08T14:35:31;8.30;;;3.87;;
75793;SDS011;64418;47.536;19.074;2023-03-08T14:38:00;7.68;;;3.00;;
75793;SDS011;64418;47.536;19.074;2023-03-08T14:40:46;6.07;;;2.67;;
75793;SDS011;64418;47.536;19.074;2023-03-08T14:43:15;8.70;;;3.77;;
75793;SDS011;64418;47.536;19.074;2023-03-08T14:45:49;5.62;;;3.42;;
75793;SDS011;64418;47.536;19.074;2023-03-08T14:48:21;10.43;;;3.50;;
75793;SDS011;64418;47.536;19.074;2023-03-08T14:50:52;10.23;;;3.80;;
75793;SDS011;64418;47.536;19.074;2023-03-08T14:53:40;6.85;;;3.60;;
75793;SDS011;64418;47.536;19.074;2023-03-08T14:56:06;10.73;;;4.00;;